KBAM/BAM METAR and TAF weather

Enter ICAO airport designator
Station Type Date Time Source
KBAM METAR 2019/08/19 01:55 UTC NOAA

KBAM 190155Z AUTO 25008KT 10SM 35/M03 A2986 RMK AO1


Station Type Date Time Source
KBAM Decoded METAR 2019/08/19 01:55 UTC NOAA

Station name not available
Aug 18, 2019 - 09:55 PM EDT / 2019.08.19 0155 UTC
Wind: from the WSW (250 degrees) at 9 MPH (8 KT):0
Visibility: 10 mile(s):0
Temperature: 95 F (35 C)
Dew Point: 26 F (-3 C)
Relative Humidity: 8%
Pressure (altimeter): 29.86 in. Hg (1011 hPa)
ob: KBAM 190155Z AUTO 25008KT 10SM 35/M03 A2986 RMK AO1
cycle: 2

Station Type Date Time Source
KBAM TAF 2019/08/18 18:51 UTC NOAA

TAF KBAM 181746Z 1818/1918 19007KT P6SM SKC
FM182000 32010G18KT P6SM FEW250
FM190100 32008KT P6SM FEW150
FM190600 VRB03KT P6SM SKC
AMD NOT SKED

Example: see airport list